Time;durP1;ratioP1;P1;durP2;ratioP2;P2;SDS_P1;SDS_P2;PMS_P1;PMS_P2;Temp;Humidity;BMP_temperature;BMP_pressure;BME280_temperature;BME280_humidity;BME280_pressure;Samples;Min_cycle;Max_cycle;Signal;HPM_P1;HPM_P2
2021/07/17 00:01:18;;;;;;;;;;;22.10;50.10;;;;;;8327622;28;19924;-52
2021/07/17 00:05:21;;;;;;;;;;;22.10;50.10;;;;;;8327516;28;20034;-51
2021/07/17 00:09:21;;;;;;;;;;;22.10;50.10;;;;;;8328119;28;19917;-51
2021/07/17 00:13:22;;;;;;;;;;;22.10;50.10;;;;;;8327239;28;20310;-51
2021/07/17 00:17:22;;;;;;;;;;;22.10;50.00;;;;;;8332473;28;19940;-50
2021/07/17 00:21:23;;;;;;;;;;;22.10;50.10;;;;;;8328117;28;19917;-50
2021/07/17 00:25:23;;;;;;;;;;;22.10;50.10;;;;;;8327093;28;19917;-50
2021/07/17 00:29:24;;;;;;;;;;;22.10;50.00;;;;;;8327962;28;20346;-52
2021/07/17 00:33:24;;;;;;;;;;;22.10;50.00;;;;;;8331903;28;19967;-50
2021/07/17 00:37:25;;;;;;;;;;;22.00;50.00;;;;;;8326968;28;19940;-51
2021/07/17 00:41:25;;;;;;;;;;;22.00;50.00;;;;;;8327424;28;19924;-51
2021/07/17 00:45:26;;;;;;;;;;;22.00;50.00;;;;;;8327148;28;20401;-50
2021/07/17 00:49:27;;;;;;;;;;;22.00;50.00;;;;;;8331045;28;19964;-51
2021/07/17 00:53:28;;;;;;;;;;;22.00;50.00;;;;;;8326749;28;19925;-51
2021/07/17 00:57:32;;;;;;;;;;;22.00;50.00;;;;;;8327235;28;19923;-50
2021/07/17 01:01:33;;;;;;;;;;;22.00;50.00;;;;;;8326210;28;19917;-50
2021/07/17 01:05:34;;;;;;;;;;;22.00;50.00;;;;;;8326565;28;19921;-50
2021/07/17 01:09:34;;;;;;;;;;;22.00;50.10;;;;;;8331333;28;20320;-50
2021/07/17 01:13:35;;;;;;;;;;;22.00;50.10;;;;;;8328678;28;19952;-50
2021/07/17 01:17:35;;;;;;;;;;;22.00;50.10;;;;;;8337428;28;19917;-51
2021/07/17 01:21:36;;;;;;;;;;;22.00;50.10;;;;;;8337339;28;20390;-50
2021/07/17 01:25:36;;;;;;;;;;;22.00;50.10;;;;;;8341444;28;19914;-51
2021/07/17 01:29:38;;;;;;;;;;;22.00;50.10;;;;;;8337437;28;19924;-53
2021/07/17 01:33:39;;;;;;;;;;;22.00;50.10;;;;;;8336871;28;20382;-49
2021/07/17 01:37:40;;;;;;;;;;;22.00;50.10;;;;;;8336765;28;20382;-51
2021/07/17 01:41:40;;;;;;;;;;;22.00;50.60;;;;;;8336918;28;19917;-53
2021/07/17 01:45:41;;;;;;;;;;;22.00;50.10;;;;;;8341656;28;19918;-51
2021/07/17 01:49:41;;;;;;;;;;;22.00;50.10;;;;;;8336473;28;19924;-50
2021/07/17 01:53:42;;;;;;;;;;;22.00;50.10;;;;;;8336948;28;19925;-53
2021/07/17 01:57:44;;;;;;;;;;;22.00;50.10;;;;;;8336889;28;20350;-51
2021/07/17 02:01:44;;;;;;;;;;;22.00;50.20;;;;;;8340919;28;20278;-52
2021/07/17 02:05:44;;;;;;;;;;;22.00;50.20;;;;;;8336524;28;19921;-50
2021/07/17 02:09:45;;;;;;;;;;;21.90;50.10;;;;;;8337042;28;20015;-52
2021/07/17 02:13:55;;;;;;;;;;;22.00;50.20;;;;;;8335977;28;19929;-51
2021/07/17 02:17:56;;;;;;;;;;;21.90;50.10;;;;;;8339006;28;19917;-53
2021/07/17 02:21:57;;;;;;;;;;;21.90;50.10;;;;;;8338908;28;19924;-51
2021/07/17 02:25:57;;;;;;;;;;;21.90;50.10;;;;;;8332749;28;19921;-50
2021/07/17 02:29:58;;;;;;;;;;;21.90;50.10;;;;;;8331116;28;19921;-51
2021/07/17 02:33:58;;;;;;;;;;;21.90;50.10;;;;;;8331157;28;19925;-50
2021/07/17 02:37:59;;;;;;;;;;;21.90;50.10;;;;;;8335047;28;19983;-51
2021/07/17 02:41:59;;;;;;;;;;;21.90;50.10;;;;;;8330629;28;19921;-53
2021/07/17 02:46:00;;;;;;;;;;;21.90;50.10;;;;;;8331018;28;20292;-52
2021/07/17 02:50:01;;;;;;;;;;;21.90;50.10;;;;;;8329509;28;20386;-51
2021/07/17 02:54:01;;;;;;;;;;;21.90;50.10;;;;;;8335449;28;19925;-54
2021/07/17 02:58:02;;;;;;;;;;;21.90;50.10;;;;;;8330544;28;20366;-53
2021/07/17 03:02:03;;;;;;;;;;;21.90;50.10;;;;;;8329613;28;19917;-53
2021/07/17 03:06:03;;;;;;;;;;;21.90;50.10;;;;;;8330114;28;19921;-50
2021/07/17 03:10:04;;;;;;;;;;;21.90;50.10;;;;;;8329941;28;19917;-50
2021/07/17 03:14:05;;;;;;;;;;;21.90;50.10;;;;;;8333769;28;19925;-50
2021/07/17 03:18:05;;;;;;;;;;;21.90;50.10;;;;;;8306319;28;20350;-50
2021/07/17 03:22:06;;;;;;;;;;;21.90;50.10;;;;;;8311355;28;20439;-51
2021/07/17 03:26:06;;;;;;;;;;;21.90;50.10;;;;;;8329167;28;19924;-50
2021/07/17 03:30:07;;;;;;;;;;;21.90;50.10;;;;;;8334191;28;20000;-50
2021/07/17 03:34:08;;;;;;;;;;;21.90;50.10;;;;;;8329428;28;19925;-50
2021/07/17 03:38:08;;;;;;;;;;;21.90;50.10;;;;;;8327659;28;19921;-49
2021/07/17 03:42:08;;;;;;;;;;;21.80;50.10;;;;;;8328507;28;19955;-51
2021/07/17 03:46:09;;;;;;;;;;;21.80;50.10;;;;;;8333322;28;19963;-50
2021/07/17 03:50:10;;;;;;;;;;;21.80;50.10;;;;;;8328420;28;20382;-50
2021/07/17 03:54:10;;;;;;;;;;;21.80;50.10;;;;;;8328376;28;19931;-50
2021/07/17 03:58:11;;;;;;;;;;;21.80;50.10;;;;;;8328385;28;20369;-52
2021/07/17 04:02:11;;;;;;;;;;;21.80;50.10;;;;;;8328621;28;19919;-52
2021/07/17 04:06:12;;;;;;;;;;;21.90;50.10;;;;;;8332724;28;19928;-49
2021/07/17 04:10:13;;;;;;;;;;;21.80;50.10;;;;;;8327519;28;19917;-49
2021/07/17 04:14:14;;;;;;;;;;;21.80;50.10;;;;;;8328032;28;19925;-50
2021/07/17 04:18:15;;;;;;;;;;;21.80;50.20;;;;;;8327855;28;19917;-50
2021/07/17 04:22:15;;;;;;;;;;;21.80;50.10;;;;;;8331657;28;19926;-50
2021/07/17 04:26:16;;;;;;;;;;;21.80;50.10;;;;;;8327430;28;20333;-50
2021/07/17 04:30:16;;;;;;;;;;;21.80;50.10;;;;;;8327315;28;19963;-50
2021/07/17 04:34:17;;;;;;;;;;;21.80;50.20;;;;;;8318566;28;19921;-51
2021/07/17 04:38:17;;;;;;;;;;;21.80;50.10;;;;;;8299133;28;19917;-50
2021/07/17 04:42:17;;;;;;;;;;;21.80;50.10;;;;;;8327374;28;20302;-50
2021/07/17 04:46:18;;;;;;;;;;;21.80;50.20;;;;;;8326441;28;19921;-50
2021/07/17 04:50:18;;;;;;;;;;;21.80;50.10;;;;;;8326470;28;19921;-51
2021/07/17 04:54:19;;;;;;;;;;;21.80;50.10;;;;;;8326601;28;20382;-50
2021/07/17 04:58:19;;;;;;;;;;;21.80;50.10;;;;;;8330834;28;19917;-51
2021/07/17 05:02:20;;;;;;;;;;;21.80;50.10;;;;;;8326545;28;19941;-52
2021/07/17 05:06:20;;;;;;;;;;;21.80;50.10;;;;;;8326419;28;20243;-50
2021/07/17 05:10:22;;;;;;;;;;;21.80;50.10;;;;;;8326105;28;19924;-51
2021/07/17 05:14:22;;;;;;;;;;;21.80;50.10;;;;;;8331286;28;19921;-49
2021/07/17 05:18:23;;;;;;;;;;;21.80;50.10;;;;;;8326674;28;19924;-51
2021/07/17 05:22:23;;;;;;;;;;;21.80;50.10;;;;;;8326722;28;20347;-50
2021/07/17 05:26:24;;;;;;;;;;;21.80;50.10;;;;;;8326278;28;19921;-50
2021/07/17 05:30:24;;;;;;;;;;;21.80;50.10;;;;;;8327708;28;19921;-51
2021/07/17 05:34:25;;;;;;;;;;;21.80;50.10;;;;;;8329003;28;19933;-49
2021/07/17 05:38:25;;;;;;;;;;;21.80;50.10;;;;;;8326091;28;19917;-50
2021/07/17 05:42:25;;;;;;;;;;;21.80;50.10;;;;;;8326110;28;19917;-51
2021/07/17 05:46:26;;;;;;;;;;;21.80;50.10;;;;;;8325301;28;19917;-50
2021/07/17 05:50:26;;;;;;;;;;;21.80;50.20;;;;;;8330528;28;19924;-50
2021/07/17 05:54:27;;;;;;;;;;;21.80;50.20;;;;;;8299115;28;19993;-50
2021/07/17 05:58:28;;;;;;;;;;;21.80;50.20;;;;;;8310006;28;19925;-49
2021/07/17 06:02:28;;;;;;;;;;;21.80;50.20;;;;;;8330146;28;20378;-51
2021/07/17 06:06:29;;;;;;;;;;;21.80;50.10;;;;;;8336392;28;19921;-50
2021/07/17 06:10:29;;;;;;;;;;;21.80;50.20;;;;;;8300452;28;19922;-54
2021/07/17 06:14:30;;;;;;;;;;;21.80;50.10;;;;;;8319819;28;20424;-52
2021/07/17 06:18:30;;;;;;;;;;;21.80;50.10;;;;;;8331491;28;20439;-54
2021/07/17 06:22:31;;;;;;;;;;;21.80;50.10;;;;;;8331435;28;19918;-50
2021/07/17 06:26:32;;;;;;;;;;;21.80;50.20;;;;;;8318377;28;20351;-50
2021/07/17 06:30:32;;;;;;;;;;;21.80;50.20;;;;;;8331165;28;19944;-49
2021/07/17 06:34:33;;;;;;;;;;;21.80;50.20;;;;;;8330477;28;19929;-50
2021/07/17 06:38:33;;;;;;;;;;;21.80;50.30;;;;;;8330772;28;20003;-49
2021/07/17 06:42:39;;;;;;;;;;;21.80;50.20;;;;;;8335378;28;19967;-49
2021/07/17 06:46:39;;;;;;;;;;;21.80;50.20;;;;;;8302141;28;19963;-49
2021/07/17 06:50:40;;;;;;;;;;;21.80;50.30;;;;;;8317048;28;19918;-51
2021/07/17 06:54:40;;;;;;;;;;;21.80;50.20;;;;;;8322074;28;19932;-50
2021/07/17 06:58:41;;;;;;;;;;;21.80;50.20;;;;;;8301606;28;19914;-49
2021/07/17 07:02:42;;;;;;;;;;;21.80;50.20;;;;;;8329528;28;19917;-51
2021/07/17 07:06:42;;;;;;;;;;;21.80;50.20;;;;;;8320144;28;19921;-50
2021/07/17 07:10:42;;;;;;;;;;;21.80;50.20;;;;;;8308333;28;20000;-52
2021/07/17 07:14:43;;;;;;;;;;;21.90;50.30;;;;;;8329452;28;20298;-52
2021/07/17 07:18:44;;;;;;;;;;;21.90;50.30;;;;;;8334162;28;19917;-53
2021/07/17 07:22:44;;;;;;;;;;;21.80;50.30;;;;;;8329145;28;20004;-50
2021/07/17 07:26:45;;;;;;;;;;;21.90;50.30;;;;;;8329659;28;20290;-50
2021/07/17 07:30:45;;;;;;;;;;;21.90;50.20;;;;;;8329467;28;20358;-52
2021/07/17 07:34:46;;;;;;;;;;;21.90;50.30;;;;;;8333280;28;20375;-50
2021/07/17 07:38:46;;;;;;;;;;;21.90;50.30;;;;;;8329078;28;19917;-49
2021/07/17 07:42:47;;;;;;;;;;;21.90;50.30;;;;;;8329024;28;19953;-51
2021/07/17 07:46:49;;;;;;;;;;;21.90;50.30;;;;;;8328012;28;19921;-50
2021/07/17 07:50:50;;;;;;;;;;;21.90;50.30;;;;;;8330140;28;19917;-51
2021/07/17 07:54:51;;;;;;;;;;;21.90;50.30;;;;;;8299341;28;20294;-50
2021/07/17 07:58:51;;;;;;;;;;;21.90;50.20;;;;;;8318957;28;19921;-51
2021/07/17 08:02:52;;;;;;;;;;;21.90;50.30;;;;;;8328246;28;20374;-52
2021/07/17 08:06:52;;;;;;;;;;;21.90;50.30;;;;;;8327910;28;19931;-51
2021/07/17 08:10:53;;;;;;;;;;;21.90;50.30;;;;;;8332119;28;20029;-50
2021/07/17 08:14:53;;;;;;;;;;;21.90;50.20;;;;;;8327824;28;19925;-49
2021/07/17 08:18:54;;;;;;;;;;;22.00;50.40;;;;;;8328262;28;20000;-49
2021/07/17 08:22:54;;;;;;;;;;;21.90;50.30;;;;;;8326823;28;19924;-49
2021/07/17 08:26:55;;;;;;;;;;;22.00;50.30;;;;;;8332210;28;19963;-48
2021/07/17 08:30:55;;;;;;;;;;;22.00;50.30;;;;;;8297768;28;20401;-50
2021/07/17 08:34:56;;;;;;;;;;;22.00;50.40;;;;;;8315088;28;19924;-52
2021/07/17 08:38:56;;;;;;;;;;;22.00;50.30;;;;;;8327322;28;20267;-50
2021/07/17 08:42:57;;;;;;;;;;;22.00;50.30;;;;;;8327238;28;19917;-50
2021/07/17 08:46:57;;;;;;;;;;;22.00;50.40;;;;;;8330972;28;19917;-50
2021/07/17 08:50:58;;;;;;;;;;;22.00;50.40;;;;;;8327309;28;20294;-51
2021/07/17 08:55:04;;;;;;;;;;;22.00;50.40;;;;;;8326356;28;20028;-51
2021/07/17 08:59:04;;;;;;;;;;;22.00;50.50;;;;;;8326380;28;20330;-49
2021/07/17 09:03:06;;;;;;;;;;;22.00;50.50;;;;;;8331211;28;20008;-52
2021/07/17 09:07:06;;;;;;;;;;;22.10;50.70;;;;;;8326727;28;19921;-54
2021/07/17 09:11:07;;;;;;;;;;;22.00;50.30;;;;;;8325983;28;19947;-51
2021/07/17 09:15:16;;;;;;;;;;;22.10;50.60;;;;;;8326642;28;19921;-52
2021/07/17 09:19:16;;;;;;;;;;;22.10;50.50;;;;;;8326652;28;19913;-52
2021/07/17 09:23:22;;;;;;;;;;;22.10;50.50;;;;;;8329456;28;19921;-51
2021/07/17 09:27:23;;;;;;;;;;;22.10;50.60;;;;;;8326187;28;19924;-51
2021/07/17 09:31:24;;;;;;;;;;;22.10;50.60;;;;;;8325828;28;19921;-49
2021/07/17 09:35:25;;;;;;;;;;;22.10;50.40;;;;;;8329213;28;19927;-49
2021/07/17 09:39:33;;;;;;;;;;;22.10;50.70;;;;;;8337584;28;20362;-53
2021/07/17 09:43:34;;;;;;;;;;;22.20;50.70;;;;;;8332118;28;19967;-51
2021/07/17 09:47:34;;;;;;;;;;;22.20;50.50;;;;;;8332669;28;20423;-53
2021/07/17 09:51:35;;;;;;;;;;;22.20;50.50;;;;;;8332363;28;20020;-50
2021/07/17 09:55:35;;;;;;;;;;;22.20;50.50;;;;;;8335268;28;19999;-53
2021/07/17 09:59:36;;;;;;;;;;;22.20;50.40;;;;;;8333292;28;19929;-51
2021/07/17 10:03:36;;;;;;;;;;;22.20;50.70;;;;;;8331924;28;20000;-54
2021/07/17 10:07:37;;;;;;;;;;;22.30;50.20;;;;;;8331577;28;20393;-52
2021/07/17 10:11:37;;;;;;;;;;;22.30;50.20;;;;;;8329147;28;19921;-51
2021/07/17 10:15:38;;;;;;;;;;;22.40;50.00;;;;;;8303415;28;19917;-53
2021/07/17 10:19:39;;;;;;;;;;;22.40;50.00;;;;;;8325056;28;19917;-53
2021/07/17 10:23:40;;;;;;;;;;;22.40;49.90;;;;;;8331565;28;19922;-54
2021/07/17 10:27:41;;;;;;;;;;;22.50;50.00;;;;;;8331479;28;20009;-52
2021/07/17 10:31:42;;;;;;;;;;;22.50;50.00;;;;;;8335233;28;20027;-53
2021/07/17 10:35:43;;;;;;;;;;;22.50;50.00;;;;;;8331211;28;19971;-54
2021/07/17 10:39:48;;;;;;;;;;;22.60;50.10;;;;;;8331010;28;19913;-50
2021/07/17 10:43:52;;;;;;;;;;;22.60;50.00;;;;;;8330273;28;19921;-52
2021/07/17 10:47:53;;;;;;;;;;;22.60;50.00;;;;;;8330277;28;19914;-54
2021/07/17 10:51:58;;;;;;;;;;;22.60;50.00;;;;;;8334962;28;19925;-54
2021/07/17 10:56:18;;;;;;;;;;;22.60;49.90;;;;;;8329416;28;19940;-52
2021/07/17 11:00:38;;;;;;;;;;;22.60;49.80;;;;;;8330360;28;19918;-53
2021/07/17 11:04:39;;;;;;;;;;;22.70;49.80;;;;;;8329471;28;19971;-53
2021/07/17 11:08:39;;;;;;;;;;;22.70;49.80;;;;;;8330393;28;20354;-53
2021/07/17 11:12:43;;;;;;;;;;;22.70;49.70;;;;;;8334691;28;19947;-54
2021/07/17 11:16:47;;;;;;;;;;;22.70;49.80;;;;;;8329246;28;20345;-53
2021/07/17 11:20:47;;;;;;;;;;;22.70;49.70;;;;;;8330071;28;19924;-50
2021/07/17 11:25:01;;;;;;;;;;;22.80;49.70;;;;;;8329784;28;19917;-52
2021/07/17 11:29:03;;;;;;;;;;;22.80;49.60;;;;;;8333644;28;19918;-52
2021/07/17 11:33:04;;;;;;;;;;;22.80;49.70;;;;;;8329312;28;19964;-53
2021/07/17 11:37:08;;;;;;;;;;;22.80;49.60;;;;;;8330118;28;19914;-54
2021/07/17 11:41:08;;;;;;;;;;;22.80;49.60;;;;;;8328914;28;19917;-52
2021/07/17 11:45:09;;;;;;;;;;;22.90;49.60;;;;;;8329041;28;19929;-53
2021/07/17 11:49:10;;;;;;;;;;;22.90;49.70;;;;;;8332745;28;19928;-50
2021/07/17 11:53:15;;;;;;;;;;;22.90;49.60;;;;;;8303509;28;19940;-52
2021/07/17 11:57:17;;;;;;;;;;;22.90;49.60;;;;;;8312095;28;20470;-49
2021/07/17 12:01:18;;;;;;;;;;;22.90;49.50;;;;;;8327328;28;19917;-50
2021/07/17 12:05:19;;;;;;;;;;;22.90;49.50;;;;;;8332641;28;19944;-52
2021/07/17 12:09:30;;;;;;;;;;;23.00;49.60;;;;;;8328377;28;20370;-51
2021/07/17 12:13:30;;;;;;;;;;;23.00;49.60;;;;;;8327798;28;19925;-55
2021/07/17 12:17:31;;;;;;;;;;;23.00;49.50;;;;;;8328265;28;19917;-51
2021/07/17 12:21:32;;;;;;;;;;;23.10;49.60;;;;;;8327754;28;19913;-50
2021/07/17 12:25:34;;;;;;;;;;;23.10;49.50;;;;;;8331671;28;20344;-48
2021/07/17 12:29:35;;;;;;;;;;;23.10;49.50;;;;;;8327771;28;19987;-50
2021/07/17 12:33:36;;;;;;;;;;;23.10;49.50;;;;;;8309854;28;20375;-49
2021/07/17 12:37:37;;;;;;;;;;;23.10;49.40;;;;;;8326886;28;19917;-51
2021/07/17 12:41:37;;;;;;;;;;;23.10;49.40;;;;;;8331585;28;20293;-49
2021/07/17 12:45:39;;;;;;;;;;;23.20;49.60;;;;;;8327155;28;20015;-48
2021/07/17 12:49:40;;;;;;;;;;;23.10;49.60;;;;;;8326056;28;19917;-50
2021/07/17 12:53:41;;;;;;;;;;;23.10;49.60;;;;;;8326793;28;19948;-50
2021/07/17 12:57:42;;;;;;;;;;;23.10;49.70;;;;;;8328104;28;19959;-50
2021/07/17 13:01:44;;;;;;;;;;;23.10;49.90;;;;;;8329532;28;19913;-52
2021/07/17 13:05:47;;;;;;;;;;;23.10;49.70;;;;;;8326606;28;20374;-49
2021/07/17 13:09:49;;;;;;;;;;;23.20;49.70;;;;;;8326200;28;19951;-49
2021/07/17 13:13:53;;;;;;;;;;;23.20;49.50;;;;;;8325415;28;19929;-51
2021/07/17 13:17:53;;;;;;;;;;;23.20;49.50;;;;;;8331132;28;19913;-50
2021/07/17 13:22:01;;;;;;;;;;;23.20;49.50;;;;;;8326353;28;20435;-54
2021/07/17 13:26:15;;;;;;;;;;;23.20;49.70;;;;;;8325434;28;19918;-51
2021/07/17 13:30:15;;;;;;;;;;;23.20;49.60;;;;;;8326150;28;19971;-48
2021/07/17 13:34:16;;;;;;;;;;;23.30;49.60;;;;;;8325637;28;20271;-49
2021/07/17 13:38:17;;;;;;;;;;;23.30;49.50;;;;;;8330689;28;19913;-49
2021/07/17 13:42:19;;;;;;;;;;;23.30;49.40;;;;;;8325828;28;19970;-50
2021/07/17 13:46:22;;;;;;;;;;;23.30;49.60;;;;;;8325666;28;19921;-50
2021/07/17 13:50:24;;;;;;;;;;;23.30;49.60;;;;;;8326380;28;19924;-53
2021/07/17 13:54:24;;;;;;;;;;;23.30;49.40;;;;;;8330272;28;19925;-50
2021/07/17 13:58:27;;;;;;;;;;;23.30;49.50;;;;;;8325564;28;20345;-51
2021/07/17 14:02:27;;;;;;;;;;;23.30;49.60;;;;;;8325864;28;19924;-50
2021/07/17 14:06:29;;;;;;;;;;;23.30;49.50;;;;;;8325966;28;19921;-49
2021/07/17 14:10:30;;;;;;;;;;;23.30;49.50;;;;;;8326344;28;19975;-50
2021/07/17 14:14:30;;;;;;;;;;;23.30;49.60;;;;;;8328581;28;19921;-52
2021/07/17 14:18:31;;;;;;;;;;;23.30;49.70;;;;;;8325856;28;19924;-51
2021/07/17 14:22:31;;;;;;;;;;;23.30;49.70;;;;;;8328454;28;20016;-49
2021/07/17 14:26:32;;;;;;;;;;;23.30;49.80;;;;;;8331790;28;20004;-50
2021/07/17 14:30:32;;;;;;;;;;;23.30;49.80;;;;;;8335954;28;20016;-50
2021/07/17 14:34:33;;;;;;;;;;;23.30;49.70;;;;;;8330925;28;19929;-53
2021/07/17 14:38:34;;;;;;;;;;;23.30;49.60;;;;;;8331198;28;19929;-52
2021/07/17 14:42:34;;;;;;;;;;;23.30;49.80;;;;;;8330975;28;20317;-52
2021/07/17 14:46:35;;;;;;;;;;;23.30;49.70;;;;;;8334826;28;19913;-49
2021/07/17 14:50:35;;;;;;;;;;;23.30;49.80;;;;;;8330856;28;19917;-49
2021/07/17 14:54:36;;;;;;;;;;;23.30;49.70;;;;;;8330386;28;20286;-53
2021/07/17 14:58:36;;;;;;;;;;;23.30;49.50;;;;;;8329867;28;19917;-49
2021/07/17 15:02:37;;;;;;;;;;;23.40;50.70;;;;;;8330412;28;19913;-52
2021/07/17 15:06:37;;;;;;;;;;;23.40;49.90;;;;;;8334641;28;19921;-49
2021/07/17 15:10:38;;;;;;;;;;;23.30;49.90;;;;;;8329564;28;19917;-50
2021/07/17 15:14:38;;;;;;;;;;;23.30;49.80;;;;;;8329835;28;19925;-52
2021/07/17 15:18:39;;;;;;;;;;;23.40;50.10;;;;;;8325838;28;19924;-49
2021/07/17 15:22:39;;;;;;;;;;;23.40;50.10;;;;;;8301198;28;19914;-52
2021/07/17 15:26:41;;;;;;;;;;;23.40;50.20;;;;;;8324548;28;19933;-51
2021/07/17 15:30:43;;;;;;;;;;;23.40;50.00;;;;;;8329473;28;19971;-47
2021/07/17 15:34:43;;;;;;;;;;;23.30;49.90;;;;;;8328575;28;19925;-49
2021/07/17 15:38:43;;;;;;;;;;;23.30;49.80;;;;;;8334085;28;19967;-50
2021/07/17 15:42:44;;;;;;;;;;;23.40;50.00;;;;;;8329153;28;19917;-50
2021/07/17 15:46:44;;;;;;;;;;;23.40;50.00;;;;;;8329220;28;19992;-50
2021/07/17 15:50:45;;;;;;;;;;;23.40;50.00;;;;;;8329045;28;19967;-50
2021/07/17 15:54:45;;;;;;;;;;;23.40;50.00;;;;;;8328747;28;19925;-53
2021/07/17 15:58:46;;;;;;;;;;;23.40;50.00;;;;;;8333158;28;19917;-49
2021/07/17 16:02:46;;;;;;;;;;;23.40;50.10;;;;;;8328562;28;20397;-49
2021/07/17 16:06:48;;;;;;;;;;;23.40;50.00;;;;;;8328144;28;19925;-48
2021/07/17 16:10:48;;;;;;;;;;;23.40;50.10;;;;;;8322870;28;19921;-49
2021/07/17 16:14:49;;;;;;;;;;;23.30;49.90;;;;;;8299931;28;20020;-49
2021/07/17 16:18:49;;;;;;;;;;;23.40;49.80;;;;;;8323984;28;20361;-49
2021/07/17 16:22:50;;;;;;;;;;;23.40;50.00;;;;;;8327404;28;19917;-49
2021/07/17 16:26:52;;;;;;;;;;;23.30;49.90;;;;;;8327603;28;19960;-49
2021/07/17 16:30:52;;;;;;;;;;;23.40;50.10;;;;;;8331167;28;19913;-54
2021/07/17 16:34:53;;;;;;;;;;;23.40;50.00;;;;;;8329115;28;19928;-49
2021/07/17 16:38:53;;;;;;;;;;;23.40;50.10;;;;;;8326994;28;20011;-49
2021/07/17 16:42:54;;;;;;;;;;;23.40;51.40;;;;;;8325786;28;20018;-49
2021/07/17 16:46:54;;;;;;;;;;;23.40;51.70;;;;;;8325946;28;19971;-49
2021/07/17 16:50:55;;;;;;;;;;;23.40;52.70;;;;;;8331716;28;19920;-49
2021/07/17 16:54:56;;;;;;;;;;;23.40;51.70;;;;;;8326497;28;20011;-49
2021/07/17 16:58:57;;;;;;;;;;;23.40;50.90;;;;;;8326463;28;19940;-47
2021/07/17 17:02:58;;;;;;;;;;;23.40;53.00;;;;;;8320501;28;20374;-49
2021/07/17 17:06:59;;;;;;;;;;;23.40;52.80;;;;;;8298515;28;20413;-47
2021/07/17 17:10:59;;;;;;;;;;;23.40;52.40;;;;;;8324621;28;19921;-48
2021/07/17 17:15:00;;;;;;;;;;;23.50;53.40;;;;;;8308852;28;19934;-48
2021/07/17 17:19:00;;;;;;;;;;;23.40;52.90;;;;;;8325929;28;20366;-48
2021/07/17 17:23:01;;;;;;;;;;;23.40;52.70;;;;;;8326196;28;19947;-49
2021/07/17 17:27:01;;;;;;;;;;;23.40;53.40;;;;;;8330788;28;20047;-48
2021/07/17 17:31:02;;;;;;;;;;;23.40;53.40;;;;;;8308465;28;19925;-48
2021/07/17 17:35:03;;;;;;;;;;;23.40;53.50;;;;;;8325447;28;19932;-49
2021/07/17 17:39:04;;;;;;;;;;;23.40;53.40;;;;;;8326277;28;20366;-48
2021/07/17 17:43:05;;;;;;;;;;;23.50;53.60;;;;;;8330932;28;19913;-50
2021/07/17 17:47:07;;;;;;;;;;;23.40;54.00;;;;;;8325023;28;19917;-49
2021/07/17 17:51:07;;;;;;;;;;;23.40;52.30;;;;;;8326144;28;19917;-51
2021/07/17 17:55:08;;;;;;;;;;;23.50;52.60;;;;;;8325814;28;20024;-49
2021/07/17 17:59:09;;;;;;;;;;;23.40;54.00;;;;;;8335128;28;19913;-49
2021/07/17 18:03:09;;;;;;;;;;;23.40;52.90;;;;;;8332220;28;20804;-48
2021/07/17 18:07:10;;;;;;;;;;;23.50;53.50;;;;;;8332142;28;19925;-48
2021/07/17 18:11:10;;;;;;;;;;;23.40;54.50;;;;;;8332084;28;19925;-47
2021/07/17 18:15:13;;;;;;;;;;;23.50;55.20;;;;;;8315751;28;19926;-48
2021/07/17 18:19:13;;;;;;;;;;;23.40;55.20;;;;;;8317068;28;20353;-47
2021/07/17 18:23:14;;;;;;;;;;;23.40;54.70;;;;;;8315723;28;19917;-46
2021/07/17 18:27:14;;;;;;;;;;;23.50;55.40;;;;;;8314015;28;19917;-49
2021/07/17 18:31:15;;;;;;;;;;;23.50;54.90;;;;;;8314449;28;19921;-48
2021/07/17 18:35:15;;;;;;;;;;;23.50;55.20;;;;;;8317018;28;19987;-48
2021/07/17 18:39:16;;;;;;;;;;;23.50;55.40;;;;;;8315888;28;20317;-48
2021/07/17 18:43:16;;;;;;;;;;;23.50;55.50;;;;;;8314281;28;19913;-47
2021/07/17 18:47:17;;;;;;;;;;;23.50;55.50;;;;;;8314803;28;20378;-49
2021/07/17 18:51:17;;;;;;;;;;;23.50;56.00;;;;;;8315196;28;20009;-49
2021/07/17 18:55:18;;;;;;;;;;;23.50;55.60;;;;;;8314375;28;20336;-48
2021/07/17 18:59:18;;;;;;;;;;;23.50;56.10;;;;;;8314428;28;19975;-48
2021/07/17 19:03:19;;;;;;;;;;;23.50;55.80;;;;;;8312344;28;19963;-48
2021/07/17 19:07:19;;;;;;;;;;;23.50;55.90;;;;;;8328626;28;20328;-49
2021/07/17 19:11:20;;;;;;;;;;;23.50;58.00;;;;;;8334083;28;19976;-48
2021/07/17 19:15:20;;;;;;;;;;;23.50;56.90;;;;;;8329908;28;19922;-49
2021/07/17 19:19:21;;;;;;;;;;;23.50;57.80;;;;;;8328231;28;19956;-48
2021/07/17 19:23:21;;;;;;;;;;;23.50;56.90;;;;;;8326468;28;19913;-48
2021/07/17 19:27:22;;;;;;;;;;;23.60;56.80;;;;;;8331408;28;20015;-47
2021/07/17 19:31:22;;;;;;;;;;;23.60;56.40;;;;;;8326333;28;20460;-47
2021/07/17 19:35:23;;;;;;;;;;;23.60;56.30;;;;;;8328148;28;19921;-47
2021/07/17 19:39:24;;;;;;;;;;;23.70;55.90;;;;;;8319492;28;20003;-47
2021/07/17 19:43:25;;;;;;;;;;;23.70;55.70;;;;;;8298178;28;19921;-48
2021/07/17 19:47:26;;;;;;;;;;;23.70;55.60;;;;;;8333657;28;19924;-48
2021/07/17 19:51:26;;;;;;;;;;;23.70;55.20;;;;;;8328851;28;20267;-50
2021/07/17 19:55:27;;;;;;;;;;;23.70;55.00;;;;;;8328770;28;19920;-48
2021/07/17 19:59:27;;;;;;;;;;;23.70;54.90;;;;;;8328820;28;19920;-49
2021/07/17 20:03:28;;;;;;;;;;;23.70;54.70;;;;;;8332840;28;19963;-49
2021/07/17 20:07:28;;;;;;;;;;;23.70;54.60;;;;;;8304248;28;19937;-50
2021/07/17 20:11:29;;;;;;;;;;;23.70;54.60;;;;;;8328075;28;19917;-49
2021/07/17 20:15:29;;;;;;;;;;;23.70;54.40;;;;;;8328018;28;19932;-50
2021/07/17 20:19:30;;;;;;;;;;;23.70;54.30;;;;;;8329643;28;20000;-50
2021/07/17 20:23:32;;;;;;;;;;;23.70;54.20;;;;;;8327103;28;21362;-49
2021/07/17 20:27:34;;;;;;;;;;;23.70;54.10;;;;;;8327877;28;19918;-50
2021/07/17 20:31:35;;;;;;;;;;;23.70;54.00;;;;;;8326544;28;19917;-49
2021/07/17 20:35:36;;;;;;;;;;;23.70;53.90;;;;;;8327869;28;20285;-49
2021/07/17 20:39:37;;;;;;;;;;;23.70;53.90;;;;;;8331946;28;19917;-48
2021/07/17 20:43:37;;;;;;;;;;;23.70;53.80;;;;;;8326998;28;20004;-48
2021/07/17 20:47:38;;;;;;;;;;;23.70;53.70;;;;;;8327235;28;20007;-48
2021/07/17 20:51:38;;;;;;;;;;;23.70;53.70;;;;;;8326781;28;19932;-49
2021/07/17 20:55:39;;;;;;;;;;;23.70;53.70;;;;;;8331140;28;19917;-48
2021/07/17 20:59:39;;;;;;;;;;;23.70;53.60;;;;;;8326847;28;20031;-52
2021/07/17 21:03:40;;;;;;;;;;;23.70;53.60;;;;;;8326923;28;19964;-52
2021/07/17 21:07:41;;;;;;;;;;;23.60;53.40;;;;;;8326115;28;19966;-51
2021/07/17 21:11:41;;;;;;;;;;;23.60;53.30;;;;;;8331091;28;20397;-50
2021/07/17 21:15:42;;;;;;;;;;;23.60;53.30;;;;;;8326713;28;19921;-49
2021/07/17 21:19:42;;;;;;;;;;;23.60;53.30;;;;;;8325945;28;19917;-49
2021/07/17 21:23:44;;;;;;;;;;;23.60;53.20;;;;;;8314503;28;19921;-49
2021/07/17 21:27:45;;;;;;;;;;;23.60;53.20;;;;;;8297267;28;20091;-49
2021/07/17 21:31:45;;;;;;;;;;;23.60;53.20;;;;;;8333713;28;19917;-49
2021/07/17 21:35:46;;;;;;;;;;;23.60;53.00;;;;;;8333032;28;19963;-49
2021/07/17 21:39:46;;;;;;;;;;;23.60;53.10;;;;;;8332910;28;19913;-49
2021/07/17 21:43:47;;;;;;;;;;;23.60;53.00;;;;;;8332198;28;19921;-48
2021/07/17 21:47:47;;;;;;;;;;;23.60;53.00;;;;;;8337283;28;19913;-50
2021/07/17 21:51:48;;;;;;;;;;;23.60;52.90;;;;;;8332618;28;19928;-49
2021/07/17 21:55:48;;;;;;;;;;;23.60;52.90;;;;;;8331814;28;20370;-51
2021/07/17 21:59:49;;;;;;;;;;;23.60;52.90;;;;;;8332542;28;19918;-49
2021/07/17 22:03:49;;;;;;;;;;;23.60;52.90;;;;;;8332370;28;19921;-49
2021/07/17 22:07:50;;;;;;;;;;;23.60;52.80;;;;;;8335004;28;20297;-49
2021/07/17 22:11:50;;;;;;;;;;;23.60;52.80;;;;;;8331838;28;20440;-49
2021/07/17 22:15:52;;;;;;;;;;;23.60;52.80;;;;;;8331820;28;19913;-49
2021/07/17 22:19:52;;;;;;;;;;;23.60;52.80;;;;;;8331248;28;19917;-49
2021/07/17 22:23:53;;;;;;;;;;;23.60;52.70;;;;;;8335999;28;19952;-49
2021/07/17 22:27:57;;;;;;;;;;;23.60;52.70;;;;;;8331209;28;19918;-49
2021/07/17 22:31:57;;;;;;;;;;;23.60;52.70;;;;;;8330630;28;19931;-49
2021/07/17 22:35:58;;;;;;;;;;;23.60;52.70;;;;;;8331087;28;19914;-49
2021/07/17 22:39:58;;;;;;;;;;;23.60;52.70;;;;;;8335689;28;20289;-50
2021/07/17 22:43:59;;;;;;;;;;;23.60;52.70;;;;;;8329356;28;20328;-49
2021/07/17 22:47:59;;;;;;;;;;;23.50;52.60;;;;;;8330827;28;19995;-49
2021/07/17 22:52:00;;;;;;;;;;;23.60;52.70;;;;;;8330719;28;20305;-50
2021/07/17 22:56:00;;;;;;;;;;;23.60;52.70;;;;;;8329991;28;19921;-50
2021/07/17 23:00:01;;;;;;;;;;;23.50;52.60;;;;;;8334829;28;19925;-50
2021/07/17 23:04:01;;;;;;;;;;;23.50;52.60;;;;;;8330175;28;19917;-51
2021/07/17 23:08:04;;;;;;;;;;;23.50;52.60;;;;;;8329717;28;19921;-49
2021/07/17 23:12:05;;;;;;;;;;;23.50;52.50;;;;;;8329777;28;19937;-48
2021/07/17 23:16:05;;;;;;;;;;;23.50;52.50;;;;;;8334665;28;20048;-50
2021/07/17 23:20:07;;;;;;;;;;;23.50;52.60;;;;;;8329231;28;19918;-51